Time;durP1;ratioP1;P1;durP2;ratioP2;P2;SDS_P1;SDS_P2;PMS_P1;PMS_P2;Temp;Humidity;BMP_temperature;BMP_pressure;BME280_temperature;BME280_humidity;BME280_pressure;Samples;Min_cycle;Max_cycle;Signal;HPM_P1;HPM_P2
2021/06/19 00:01:42;;;;;;;;;;;;;;;22.99;60.60;101226.47;5138140;27;19998;-40
2021/06/19 00:04:07;;;;;;;;;;;;;;;22.96;61.36;101229.81;5137876;27;20010;-40
2021/06/19 00:06:33;;;;;;;;;;;;;;;22.91;60.87;101232.66;5138142;27;19907;-40
2021/06/19 00:08:58;;;;;;;;;;;;;;;22.85;60.88;101227.22;5138045;27;19976;-41
2021/06/19 00:11:23;;;;;;;;;;;;;;;22.81;61.27;101231.72;5138127;27;20343;-41
2021/06/19 00:13:48;;;;;;;;;;;;;;;22.78;61.48;101224.03;5138000;27;19907;-41
2021/06/19 00:16:14;;;;;;;;;;;;;;;22.78;60.99;101248.84;5138273;27;19907;-41
2021/06/19 00:18:39;;;;;;;;;;;;;;;22.76;61.86;101240.06;5138640;27;19908;-40
2021/06/19 00:21:04;;;;;;;;;;;;;;;22.74;61.31;101239.56;5137615;27;19962;-40
2021/06/19 00:23:30;;;;;;;;;;;;;;;22.73;61.76;101237.09;5137680;27;19959;-40
2021/06/19 00:25:55;;;;;;;;;;;;;;;22.65;62.01;101237.81;5137754;27;19907;-41
2021/06/19 00:28:21;;;;;;;;;;;;;;;22.60;62.14;101244.22;5137742;27;19907;-41
2021/06/19 00:30:46;;;;;;;;;;;;;;;22.58;61.94;101235.44;5137999;27;19915;-40
2021/06/19 00:33:12;;;;;;;;;;;;;;;22.52;62.98;101244.91;5137200;27;19911;-41
2021/06/19 00:35:37;;;;;;;;;;;;;;;22.50;62.32;101233.38;5137321;27;20358;-40
2021/06/19 00:38:02;;;;;;;;;;;;;;;22.49;62.75;101240.81;5136132;27;19907;-40
2021/06/19 00:40:28;;;;;;;;;;;;;;;22.48;62.73;101238.34;5136198;28;20330;-40
2021/06/19 00:42:58;;;;;;;;;;;;;;;22.46;63.82;101244.19;5135962;27;20286;-41
2021/06/19 00:45:24;;;;;;;;;;;;;;;22.44;62.52;101232.63;5136309;27;20013;-40
2021/06/19 00:47:49;;;;;;;;;;;;;;;22.44;62.11;101238.13;5136190;27;19914;-41
2021/06/19 00:50:15;;;;;;;;;;;;;;;22.43;62.95;101241.19;5137088;27;19907;-40
2021/06/19 00:52:40;;;;;;;;;;;;;;;22.39;63.05;101235.47;5136680;27;19914;-40
2021/06/19 00:55:06;;;;;;;;;;;;;;;22.40;63.03;101241.78;5136728;28;19907;-41
2021/06/19 00:57:31;;;;;;;;;;;;;;;22.35;62.94;101243.53;5136100;27;19998;-41
2021/06/19 00:59:58;;;;;;;;;;;;;;;22.33;63.88;101245.75;5136074;27;19999;-41
2021/06/19 01:02:23;;;;;;;;;;;;;;;22.30;63.51;101253.78;5135659;27;19914;-40
2021/06/19 01:04:48;;;;;;;;;;;;;;;22.27;64.57;101260.75;5136715;28;19907;-41
2021/06/19 01:07:14;;;;;;;;;;;;;;;22.21;65.06;101256.44;5136393;28;19913;-41
2021/06/19 01:09:39;;;;;;;;;;;;;;;22.21;63.92;101261.13;5136386;28;19911;-41
2021/06/19 01:12:05;;;;;;;;;;;;;;;22.20;64.60;101268.53;5136016;28;20003;-40
2021/06/19 01:14:30;;;;;;;;;;;;;;;22.16;64.69;101256.50;5136347;27;19952;-41
2021/06/19 01:16:55;;;;;;;;;;;;;;;22.15;64.64;101257.59;5135982;28;19907;-41
2021/06/19 01:19:20;;;;;;;;;;;;;;;22.11;64.41;101253.84;5136507;28;20328;-41
2021/06/19 01:21:50;;;;;;;;;;;;;;;22.10;64.35;101263.16;5136028;28;19960;-41
2021/06/19 01:24:16;;;;;;;;;;;;;;;22.05;65.33;101254.97;5136435;27;20273;-40
2021/06/19 01:26:42;;;;;;;;;;;;;;;22.01;65.31;101257.53;5135708;27;19907;-41
2021/06/19 01:29:07;;;;;;;;;;;;;;;21.97;64.98;101255.66;5135878;27;19914;-40
2021/06/19 01:31:32;;;;;;;;;;;;;;;21.98;65.52;101257.28;5135910;28;19999;-40
2021/06/19 01:33:58;;;;;;;;;;;;;;;21.98;65.93;101257.28;5135141;27;19918;-40
2021/06/19 01:36:24;;;;;;;;;;;;;;;21.99;65.42;101258.94;5133358;27;87503;-41
2021/06/19 01:38:51;;;;;;;;;;;;;;;21.97;65.23;101258.41;5136334;27;20275;-41
2021/06/19 01:41:17;;;;;;;;;;;;;;;21.95;65.39;101249.63;5136913;27;19914;-40
2021/06/19 01:43:43;;;;;;;;;;;;;;;21.95;65.87;101246.88;5135605;27;19922;-40
2021/06/19 01:46:09;;;;;;;;;;;;;;;21.89;66.30;101248.88;5136270;27;19911;-40
2021/06/19 01:48:34;;;;;;;;;;;;;;;21.84;65.42;101247.00;5136751;27;19908;-40
2021/06/19 01:50:59;;;;;;;;;;;;;;;21.78;66.62;101248.22;5136721;27;19946;-40
2021/06/19 01:53:25;;;;;;;;;;;;;;;21.75;66.80;101246.03;5135822;27;19960;-40
2021/06/19 01:55:50;;;;;;;;;;;;;;;21.73;66.83;101248.28;5135714;27;19914;-40
2021/06/19 01:58:15;;;;;;;;;;;;;;;21.70;67.46;101237.84;5136149;27;19907;-40
2021/06/19 02:00:40;;;;;;;;;;;;;;;21.69;66.63;101241.72;5136751;27;19907;-40
2021/06/19 02:03:06;;;;;;;;;;;;;;;21.68;67.41;101251.09;5136276;27;19907;-41
2021/06/19 02:05:32;;;;;;;;;;;;;;;21.63;67.34;101245.66;5136153;27;19958;-40
2021/06/19 02:07:58;;;;;;;;;;;;;;;21.63;67.69;101242.09;5135705;27;20324;-40
2021/06/19 02:10:26;;;;;;;;;;;;;;;21.63;67.38;101248.41;5135982;27;19907;-40
2021/06/19 02:12:51;;;;;;;;;;;;;;;21.64;67.16;101241.78;5136216;27;20310;-40
2021/06/19 02:15:17;;;;;;;;;;;;;;;21.65;67.22;101237.94;5135961;27;19961;-40
2021/06/19 02:17:42;;;;;;;;;;;;;;;21.68;66.44;101250.28;5135222;27;20300;-41
2021/06/19 02:20:11;;;;;;;;;;;;;;;21.68;66.77;101242.03;5135816;27;19907;-41
2021/06/19 02:22:36;;;;;;;;;;;;;;;21.67;68.00;101245.88;5135207;27;19915;-41
2021/06/19 02:25:06;;;;;;;;;;;;;;;21.67;67.62;101246.72;5135457;27;19918;-40
2021/06/19 02:27:31;;;;;;;;;;;;;;;21.65;67.29;101248.94;5136168;27;20339;-40
2021/06/19 02:29:57;;;;;;;;;;;;;;;21.63;67.20;101256.69;5135694;27;19943;-40
2021/06/19 02:32:22;;;;;;;;;;;;;;;21.59;68.06;101256.44;5135012;27;20381;-41
2021/06/19 02:34:47;;;;;;;;;;;;;;;21.56;67.72;101256.19;5135363;27;19907;-41
2021/06/19 02:37:12;;;;;;;;;;;;;;;21.53;67.93;101256.81;5135447;27;20266;-40
2021/06/19 02:39:38;;;;;;;;;;;;;;;21.50;67.59;101266.47;5135528;27;20323;-41
2021/06/19 02:42:03;;;;;;;;;;;;;;;21.48;67.64;101265.13;5134081;27;19914;-40
2021/06/19 02:44:28;;;;;;;;;;;;;;;21.49;67.47;101266.75;5135420;27;19907;-40
2021/06/19 02:46:53;;;;;;;;;;;;;;;21.48;67.49;101270.63;5135434;27;19907;-40
2021/06/19 02:49:19;;;;;;;;;;;;;;;21.44;68.08;101270.38;5134784;27;20362;-40
2021/06/19 02:51:44;;;;;;;;;;;;;;;21.42;68.54;101266.28;5135349;27;20396;-40
2021/06/19 02:54:09;;;;;;;;;;;;;;;21.42;68.33;101271.78;5134996;27;19911;-40
2021/06/19 02:56:34;;;;;;;;;;;;;;;21.38;69.70;101266.06;5135171;27;19907;-40
2021/06/19 02:59:00;;;;;;;;;;;;;;;21.36;69.39;101275.72;5134933;27;19954;-40
2021/06/19 03:01:25;;;;;;;;;;;;;;;21.35;68.74;101274.91;5135426;27;19907;-40
2021/06/19 03:03:50;;;;;;;;;;;;;;;21.35;69.16;101277.66;5134839;27;19907;-41
2021/06/19 03:06:16;;;;;;;;;;;;;;;21.33;68.74;101275.19;5135476;27;19995;-40
2021/06/19 03:08:41;;;;;;;;;;;;;;;21.37;68.59;101277.34;5134917;27;19973;-40
2021/06/19 03:11:06;;;;;;;;;;;;;;;21.36;68.24;101284.78;5134884;28;20308;-40
2021/06/19 03:13:32;;;;;;;;;;;;;;;21.38;69.09;101288.06;5135011;28;19934;-41
2021/06/19 03:15:57;;;;;;;;;;;;;;;21.38;69.99;101284.50;5134870;28;19911;-40
2021/06/19 03:18:22;;;;;;;;;;;;;;;21.38;69.71;101292.75;5135023;28;20259;-41
2021/06/19 03:20:48;;;;;;;;;;;;;;;21.38;68.61;101290.00;5135070;28;19952;-40
2021/06/19 03:23:13;;;;;;;;;;;;;;;21.39;68.74;101286.97;5134646;27;19957;-41
2021/06/19 03:25:41;;;;;;;;;;;;;;;21.39;69.54;101305.41;5134432;27;19914;-41
2021/06/19 03:28:07;;;;;;;;;;;;;;;21.36;69.28;101306.78;5134715;27;20006;-40
2021/06/19 03:30:34;;;;;;;;;;;;;;;21.33;69.37;101301.88;5134707;27;20365;-40
2021/06/19 03:33:00;;;;;;;;;;;;;;;21.24;69.71;101298.09;5135148;27;20224;-40
2021/06/19 03:35:25;;;;;;;;;;;;;;;21.24;70.01;101300.84;5134462;27;19940;-40
2021/06/19 03:37:51;;;;;;;;;;;;;;;21.21;69.52;101299.50;5134270;27;19914;-40
2021/06/19 03:40:18;;;;;;;;;;;;;;;21.18;70.34;101296.50;5135120;27;19907;-41
2021/06/19 03:42:44;;;;;;;;;;;;;;;21.14;69.47;101304.53;5134569;27;19959;-40
2021/06/19 03:45:10;;;;;;;;;;;;;;;21.13;69.35;101302.91;5134546;27;19951;-40
2021/06/19 03:47:37;;;;;;;;;;;;;;;21.07;70.02;101306.78;5134360;27;19986;-40
2021/06/19 03:50:02;;;;;;;;;;;;;;;21.04;69.53;101308.19;5134525;27;19965;-40
2021/06/19 03:52:28;;;;;;;;;;;;;;;21.01;70.08;101311.53;5134402;27;20347;-40
2021/06/19 03:54:53;;;;;;;;;;;;;;;21.00;69.38;101309.06;5134128;28;19950;-40
2021/06/19 03:57:22;;;;;;;;;;;;;;;20.96;69.36;101313.50;5134110;28;19954;-40
2021/06/19 03:59:48;;;;;;;;;;;;;;;20.94;69.63;101311.06;5134344;27;20262;-40
2021/06/19 04:02:13;;;;;;;;;;;;;;;20.89;69.28;101313.84;5134211;28;19908;-40
2021/06/19 04:04:38;;;;;;;;;;;;;;;20.82;69.63;101314.16;5134190;28;19907;-40
2021/06/19 04:07:03;;;;;;;;;;;;;;;20.76;69.83;101331.00;5135007;27;19914;-41
2021/06/19 04:09:28;;;;;;;;;;;;;;;20.74;69.49;101339.53;5138344;27;19914;-40
2021/06/19 04:11:54;;;;;;;;;;;;;;;20.70;69.38;101335.72;5137760;27;19907;-40
2021/06/19 04:14:19;;;;;;;;;;;;;;;20.69;69.75;101341.47;5138288;27;19911;-40
2021/06/19 04:16:44;;;;;;;;;;;;;;;20.70;69.16;101338.47;5138226;27;19907;-40
2021/06/19 04:19:09;;;;;;;;;;;;;;;20.66;69.91;101342.06;5137851;27;19915;-40
2021/06/19 04:21:34;;;;;;;;;;;;;;;20.62;69.76;101344.56;5137915;27;19907;-40
2021/06/19 04:24:00;;;;;;;;;;;;;;;20.61;70.08;101336.63;5137730;27;19907;-40
2021/06/19 04:26:25;;;;;;;;;;;;;;;20.61;69.36;101350.34;5138630;27;19907;-40
2021/06/19 04:28:50;;;;;;;;;;;;;;;20.61;69.88;101353.91;5137003;27;19907;-40
2021/06/19 04:31:16;;;;;;;;;;;;;;;20.62;69.13;101350.06;5138554;27;19998;-40
2021/06/19 04:33:41;;;;;;;;;;;;;;;20.63;69.47;101359.13;5137376;27;19957;-40
2021/06/19 04:36:08;;;;;;;;;;;;;;;20.68;69.22;101357.16;5137947;27;19911;-40
2021/06/19 04:38:33;;;;;;;;;;;;;;;20.76;69.18;101364.78;5137555;27;19960;-41
2021/06/19 04:41:02;;;;;;;;;;;;;;;20.86;69.01;101357.56;5137580;27;19911;-40
2021/06/19 04:43:39;;;;;;;;;;;;;;;20.88;69.44;101363.59;5137381;27;19911;-40
2021/06/19 04:46:05;;;;;;;;;;;;;;;20.81;69.23;101372.19;5137392;27;19914;-40
2021/06/19 04:48:30;;;;;;;;;;;;;;;20.79;69.87;101386.22;5137059;27;19908;-40
2021/06/19 04:50:55;;;;;;;;;;;;;;;20.82;69.16;101396.63;5137304;27;19908;-41
2021/06/19 04:53:22;;;;;;;;;;;;;;;20.80;69.43;101409.03;5136990;27;19907;-40
2021/06/19 04:55:48;;;;;;;;;;;;;;;20.79;69.95;101391.72;5137283;27;19914;-40
2021/06/19 04:58:13;;;;;;;;;;;;;;;20.83;69.56;101397.44;5137104;27;19908;-40
2021/06/19 05:00:38;;;;;;;;;;;;;;;20.89;69.12;101406.50;5137113;27;20270;-40
2021/06/19 05:03:04;;;;;;;;;;;;;;;20.89;69.48;101412.81;5136628;27;19986;-40
2021/06/19 05:05:30;;;;;;;;;;;;;;;20.95;69.13;101403.41;5137034;27;19949;-40
2021/06/19 05:07:55;;;;;;;;;;;;;;;21.02;68.96;101409.38;5136874;27;19907;-40
2021/06/19 05:10:21;;;;;;;;;;;;;;;21.01;68.82;101404.19;5137454;27;19907;-41
2021/06/19 05:12:47;;;;;;;;;;;;;;;21.02;69.02;101405.81;5137384;27;19907;-40
2021/06/19 05:15:16;;;;;;;;;;;;;;;21.00;68.87;101417.09;5136510;27;19915;-40
2021/06/19 05:17:41;;;;;;;;;;;;;;;21.03;68.81;101421.19;5137046;27;20002;-41
2021/06/19 05:20:07;;;;;;;;;;;;;;;21.13;68.91;101421.13;5136329;27;19990;-41
2021/06/19 05:22:32;;;;;;;;;;;;;;;21.22;68.44;101410.31;5136407;27;20281;-40
2021/06/19 05:24:57;;;;;;;;;;;;;;;21.22;68.47;101411.13;5136314;27;19964;-40
2021/06/19 05:27:23;;;;;;;;;;;;;;;21.31;68.46;101419.63;5136506;27;19907;-40
2021/06/19 05:29:48;;;;;;;;;;;;;;;21.46;67.72;101432.41;5136544;27;19907;-41
2021/06/19 05:32:13;;;;;;;;;;;;;;;21.58;68.17;101435.59;5136347;27;19907;-41
2021/06/19 05:34:41;;;;;;;;;;;;;;;21.71;67.50;101440.41;5137054;27;19914;-41
2021/06/19 05:37:06;;;;;;;;;;;;;;;21.67;66.84;101444.88;5137057;27;19962;-41
2021/06/19 05:39:31;;;;;;;;;;;;;;;21.53;67.65;101439.22;5136079;27;19950;-41
2021/06/19 05:41:57;;;;;;;;;;;;;;;21.45;67.51;101442.59;5136289;27;19919;-41
2021/06/19 05:44:22;;;;;;;;;;;;;;;21.37;67.39;101434.16;5136510;27;19907;-41
2021/06/19 05:46:47;;;;;;;;;;;;;;;21.32;67.56;101438.56;5136509;27;20244;-41
2021/06/19 05:49:12;;;;;;;;;;;;;;;21.39;67.69;101438.25;5136154;27;19907;-42
2021/06/19 05:51:37;;;;;;;;;;;;;;;21.42;67.53;101450.59;5136094;27;19913;-41
2021/06/19 05:54:03;;;;;;;;;;;;;;;21.45;67.22;101444.53;5136352;27;19954;-41
2021/06/19 05:56:29;;;;;;;;;;;;;;;21.46;67.14;101443.41;5136579;27;19907;-41
2021/06/19 05:58:55;;;;;;;;;;;;;;;21.45;66.95;101442.59;5135600;27;19946;-41
2021/06/19 06:01:20;;;;;;;;;;;;;;;21.45;66.46;101447.28;5136183;27;19950;-41
2021/06/19 06:03:45;;;;;;;;;;;;;;;21.51;66.07;101437.88;5135486;27;20300;-41
2021/06/19 06:06:11;;;;;;;;;;;;;;;21.54;65.18;101429.84;5135846;27;19908;-41
2021/06/19 06:08:36;;;;;;;;;;;;;;;21.63;65.62;101435.56;5134516;27;19907;-41
2021/06/19 06:11:02;;;;;;;;;;;;;;;21.70;65.23;101452.53;5135378;27;19954;-41
2021/06/19 06:13:27;;;;;;;;;;;;;;;21.69;64.78;101453.66;5135970;27;19907;-41
2021/06/19 06:15:52;;;;;;;;;;;;;;;21.63;64.77;101459.50;5135416;27;20314;-41
2021/06/19 06:18:17;;;;;;;;;;;;;;;21.63;65.08;101459.50;5135343;27;20285;-41
2021/06/19 06:20:42;;;;;;;;;;;;;;;21.71;65.01;101462.44;5136128;27;19911;-41
2021/06/19 06:23:08;;;;;;;;;;;;;;;21.74;65.25;101458.28;5135648;27;20411;-41
2021/06/19 06:25:33;;;;;;;;;;;;;;;21.69;65.36;101467.41;5135755;27;20002;-41
2021/06/19 06:27:58;;;;;;;;;;;;;;;21.66;65.54;101476.25;5135061;27;19907;-41
2021/06/19 06:30:23;;;;;;;;;;;;;;;21.65;65.57;101480.09;5134736;27;19947;-41
2021/06/19 06:32:49;;;;;;;;;;;;;;;21.62;65.41;101488.97;5135316;27;19955;-41
2021/06/19 06:35:14;;;;;;;;;;;;;;;21.54;64.89;101482.16;5135655;27;19911;-41
2021/06/19 06:37:40;;;;;;;;;;;;;;;21.50;65.12;101489.31;5134906;27;20347;-43
2021/06/19 06:40:06;;;;;;;;;;;;;;;21.50;64.68;101488.50;5136128;27;19914;-41
2021/06/19 06:42:32;;;;;;;;;;;;;;;21.51;64.62;101493.72;5134910;27;20015;-41
2021/06/19 06:44:57;;;;;;;;;;;;;;;21.48;64.63;101490.75;5135380;27;20014;-41
2021/06/19 06:47:22;;;;;;;;;;;;;;;21.43;64.07;101490.78;5134964;27;19914;-41
2021/06/19 06:49:48;;;;;;;;;;;;;;;21.45;64.44;101492.13;5135000;27;19907;-41
2021/06/19 06:52:13;;;;;;;;;;;;;;;21.52;64.36;101489.03;5135015;27;19913;-41
2021/06/19 06:54:39;;;;;;;;;;;;;;;21.57;64.10;101480.75;5135250;27;19956;-41
2021/06/19 06:57:08;;;;;;;;;;;;;;;21.59;63.95;101487.59;5133708;27;20365;-41
2021/06/19 06:59:34;;;;;;;;;;;;;;;21.65;63.54;101496.63;5133685;27;19960;-42
2021/06/19 07:01:59;;;;;;;;;;;;;;;21.73;63.79;101490.50;5135600;27;20280;-41
2021/06/19 07:04:24;;;;;;;;;;;;;;;21.95;62.69;101473.47;5135184;27;19907;-41
2021/06/19 07:06:49;;;;;;;;;;;;;;;22.10;62.08;101486.25;5135222;27;19994;-41
2021/06/19 07:09:15;;;;;;;;;;;;;;;22.11;62.02;101482.44;5134847;28;20259;-41
2021/06/19 07:11:40;;;;;;;;;;;;;;;22.14;61.93;101492.84;5135424;28;20002;-41
2021/06/19 07:14:05;;;;;;;;;;;;;;;22.16;62.10;101490.63;5134580;28;19907;-45
2021/06/19 07:16:30;;;;;;;;;;;;;;;22.13;61.22;101491.22;5135130;28;19915;-41
2021/06/19 07:18:57;;;;;;;;;;;;;;;22.09;61.16;101487.34;5134789;27;20018;-41
2021/06/19 07:21:22;;;;;;;;;;;;;;;22.09;61.41;101492.88;5134789;27;20363;-41
2021/06/19 07:23:47;;;;;;;;;;;;;;;22.09;61.34;101490.13;5134611;27;19961;-41
2021/06/19 07:26:13;;;;;;;;;;;;;;;22.08;61.54;101492.03;5134664;28;19907;-41
2021/06/19 07:28:38;;;;;;;;;;;;;;;22.05;60.96;101497.31;5134629;28;19908;-41
2021/06/19 07:31:03;;;;;;;;;;;;;;;21.98;60.42;101516.94;5134556;28;19914;-41
2021/06/19 07:33:28;;;;;;;;;;;;;;;21.87;60.72;101525.63;5134557;28;19914;-41
2021/06/19 07:35:54;;;;;;;;;;;;;;;21.88;60.63;101524.50;5135211;28;19915;-41
2021/06/19 07:38:20;;;;;;;;;;;;;;;21.89;60.30;101517.88;5134520;27;19907;-41
2021/06/19 07:40:45;;;;;;;;;;;;;;;21.95;60.68;101516.69;5134818;27;20407;-41
2021/06/19 07:43:10;;;;;;;;;;;;;;;22.00;60.34;101516.66;5137279;27;19907;-41
2021/06/19 07:45:35;;;;;;;;;;;;;;;22.04;60.58;101517.72;5138328;27;20017;-41
2021/06/19 07:48:00;;;;;;;;;;;;;;;22.10;60.52;101514.59;5138742;27;19938;-41
2021/06/19 07:50:26;;;;;;;;;;;;;;;22.13;59.93;101518.75;5138256;27;19907;-41
2021/06/19 07:52:51;;;;;;;;;;;;;;;22.14;60.49;101514.88;5138096;27;19919;-41
2021/06/19 07:55:16;;;;;;;;;;;;;;;22.19;60.12;101523.06;5138940;27;19989;-41
2021/06/19 07:57:42;;;;;;;;;;;;;;;22.22;60.20;101525.25;5138301;27;19911;-41
2021/06/19 08:00:08;;;;;;;;;;;;;;;22.25;60.35;101530.19;5138644;27;19907;-41
2021/06/19 08:02:33;;;;;;;;;;;;;;;22.30;60.39;101535.66;5138665;27;20351;-41
2021/06/19 08:04:58;;;;;;;;;;;;;;;22.33;59.92;101539.72;5138410;27;19914;-41
2021/06/19 08:07:24;;;;;;;;;;;;;;;22.32;59.18;101540.84;5138120;27;19914;-41
2021/06/19 08:09:49;;;;;;;;;;;;;;;22.29;59.53;101536.72;5138469;27;19907;-41
2021/06/19 08:12:14;;;;;;;;;;;;;;;22.32;60.08;101543.59;5138027;27;19907;-41
2021/06/19 08:14:40;;;;;;;;;;;;;;;22.29;59.77;101536.72;5138016;27;19915;-41
2021/06/19 08:17:15;;;;;;;;;;;;;;;22.37;59.97;101532.53;5137960;27;19960;-40
2021/06/19 08:19:41;;;;;;;;;;;;;;;22.44;59.40;101523.91;5137925;27;19915;-40
2021/06/19 08:22:06;;;;;;;;;;;;;;;22.44;59.48;101534.91;5138144;27;19907;-41
2021/06/19 08:24:32;;;;;;;;;;;;;;;22.52;59.63;101521.31;5138361;27;20335;-41
2021/06/19 08:26:57;;;;;;;;;;;;;;;22.60;59.30;101522.59;5137982;27;19911;-40
2021/06/19 08:29:23;;;;;;;;;;;;;;;22.69;59.29;101537.34;5138597;27;19907;-40
2021/06/19 08:31:48;;;;;;;;;;;;;;;22.74;58.86;101544.72;5138152;27;19911;-40
2021/06/19 08:34:13;;;;;;;;;;;;;;;22.67;58.04;101538.78;5137648;27;19908;-41
2021/06/19 08:36:38;;;;;;;;;;;;;;;22.49;58.65;101541.19;5137419;27;19918;-40
2021/06/19 08:39:04;;;;;;;;;;;;;;;22.41;59.25;101541.84;5137727;27;19908;-40
2021/06/19 08:41:30;;;;;;;;;;;;;;;22.43;59.54;101545.13;5137812;27;19914;-40
2021/06/19 08:43:56;;;;;;;;;;;;;;;22.38;59.25;101547.94;5137339;27;19952;-40
2021/06/19 08:46:22;;;;;;;;;;;;;;;22.26;59.33;101545.59;5138229;27;19911;-40
2021/06/19 08:48:48;;;;;;;;;;;;;;;22.21;59.84;101545.66;5137329;27;19908;-40
2021/06/19 08:51:14;;;;;;;;;;;;;;;22.16;59.63;101551.22;5137348;27;19907;-40
2021/06/19 08:53:39;;;;;;;;;;;;;;;22.18;59.58;101553.69;5137180;27;19995;-40
2021/06/19 08:56:04;;;;;;;;;;;;;;;22.16;59.49;101540.22;5137511;27;19929;-41
2021/06/19 08:58:29;;;;;;;;;;;;;;;22.17;60.07;101547.34;5136840;27;19966;-41
2021/06/19 09:00:55;;;;;;;;;;;;;;;22.16;59.87;101551.22;5136860;27;20006;-40
2021/06/19 09:03:29;;;;;;;;;;;;;;;22.20;59.80;101546.75;5136697;27;19998;-40
2021/06/19 09:06:13;;;;;;;;;;;;;;;22.21;59.57;101542.91;5137879;27;20289;-40
2021/06/19 09:08:57;;;;;;;;;;;;;;;22.16;59.63;101544.91;5137521;27;19908;-40
2021/06/19 09:11:32;;;;;;;;;;;;;;;22.15;59.76;101544.06;5137595;27;19934;-40
2021/06/19 09:13:59;;;;;;;;;;;;;;;22.09;59.89;101548.75;5137091;27;19919;-40
2021/06/19 09:16:24;;;;;;;;;;;;;;;22.05;59.88;101549.63;5137392;27;19907;-40
2021/06/19 09:18:49;;;;;;;;;;;;;;;21.89;60.04;101545.41;5136698;27;19929;-40
2021/06/19 09:21:14;;;;;;;;;;;;;;;21.76;60.47;101553.22;5136767;27;19908;-41
2021/06/19 09:23:40;;;;;;;;;;;;;;;21.67;60.66;101554.97;5137139;27;19915;-40
2021/06/19 09:26:07;;;;;;;;;;;;;;;21.66;60.93;101550.56;5136922;27;20080;-40
2021/06/19 09:28:50;;;;;;;;;;;;;;;21.65;60.47;101546.16;5136270;27;19915;-40
2021/06/19 09:31:28;;;;;;;;;;;;;;;21.67;60.68;101540.34;5137056;27;20289;-41
2021/06/19 09:34:01;;;;;;;;;;;;;;;21.65;60.95;101539.84;5136459;27;19911;-40
2021/06/19 09:36:56;;;;;;;;;;;;;;;21.72;61.14;101543.09;5137179;27;20281;-40
2021/06/19 09:39:25;;;;;;;;;;;;;;;21.81;61.15;101538.56;5073519;28;19923;-40
2021/06/19 09:41:52;;;;;;;;;;;;;;;22.09;60.89;101534.19;5073061;28;20233;-40
2021/06/19 09:44:31;;;;;;;;;;;;;;;22.42;60.49;101540.72;5072763;28;19967;-41
2021/06/19 09:46:57;;;;;;;;;;;;;;;22.76;59.69;101537.00;5070115;28;19917;-41
2021/06/19 09:49:28;;;;;;;;;;;;;;;23.02;59.21;101531.97;5072648;28;19915;-41
2021/06/19 09:51:53;;;;;;;;;;;;;;;23.31;58.63;101532.63;5072597;28;19954;-40
2021/06/19 09:54:19;;;;;;;;;;;;;;;23.57;58.16;101532.19;5072574;28;19908;-41
2021/06/19 09:56:48;;;;;;;;;;;;;;;23.79;57.99;101526.88;5073220;28;19974;-41
2021/06/19 09:59:33;;;;;;;;;;;;;;;23.80;56.23;101528.50;5072389;28;19916;-41
2021/06/19 10:02:00;;;;;;;;;;;;;;;23.74;57.17;101528.94;5073140;28;19961;-41
2021/06/19 10:04:26;;;;;;;;;;;;;;;23.67;56.45;101523.81;5072283;28;19909;-40
2021/06/19 10:06:52;;;;;;;;;;;;;;;23.63;56.53;101528.25;5072356;28;19915;-41
2021/06/19 10:09:18;;;;;;;;;;;;;;;23.62;56.49;101523.84;5072268;28;19908;-41
2021/06/19 10:11:44;;;;;;;;;;;;;;;23.69;56.63;101527.06;5072443;28;19908;-41
2021/06/19 10:14:11;;;;;;;;;;;;;;;23.70;55.67;101531.47;5072093;28;20004;-41
2021/06/19 10:16:40;;;;;;;;;;;;;;;23.68;56.00;101516.34;5127114;27;19907;-41
2021/06/19 10:19:05;;;;;;;;;;;;;;;23.70;56.76;101517.66;5135547;27;20003;-41
2021/06/19 10:21:30;;;;;;;;;;;;;;;23.74;56.20;101524.22;5135576;27;20354;-41
2021/06/19 10:23:56;;;;;;;;;;;;;;;23.79;56.73;101524.13;5135056;27;19997;-41
2021/06/19 10:26:23;;;;;;;;;;;;;;;23.79;56.64;101526.06;5136368;27;20013;-41
2021/06/19 10:28:50;;;;;;;;;;;;;;;23.74;56.49;101521.44;5135642;27;19951;-41
2021/06/19 10:31:18;;;;;;;;;;;;;;;23.73;55.66;101521.78;5135662;27;19950;-41
2021/06/19 10:33:44;;;;;;;;;;;;;;;23.78;56.02;101516.97;5135740;27;20335;-41
2021/06/19 10:36:10;;;;;;;;;;;;;;;23.95;55.87;101519.13;5135781;27;19918;-41
2021/06/19 10:38:47;;;;;;;;;;;;;;;24.02;55.89;101513.22;5135257;27;19915;-41
2021/06/19 10:41:12;;;;;;;;;;;;;;;24.10;55.03;101506.97;5134929;27;19918;-41
2021/06/19 10:43:42;;;;;;;;;;;;;;;24.09;55.10;101508.09;5134809;27;19908;-41
2021/06/19 10:46:36;;;;;;;;;;;;;;;24.03;55.03;101503.81;5135149;27;19914;-41
2021/06/19 10:49:19;;;;;;;;;;;;;;;24.07;55.33;101502.91;5071705;28;20296;-41
2021/06/19 10:51:45;;;;;;;;;;;;;;;24.12;54.86;101501.97;5071631;28;19912;-41
2021/06/19 10:54:10;;;;;;;;;;;;;;;24.16;54.39;101500.25;5062169;28;19912;-41
2021/06/19 10:56:51;;;;;;;;;;;;;;;24.17;54.46;101490.81;5063045;28;19908;-41
2021/06/19 10:59:23;;;;;;;;;;;;;;;24.22;54.05;101485.19;5056924;28;19931;-41
2021/06/19 11:01:49;;;;;;;;;;;;;;;24.32;53.92;101496.03;5051771;28;19909;-41
2021/06/19 11:04:33;;;;;;;;;;;;;;;24.36;53.85;101480.50;5051835;28;19916;-41
2021/06/19 11:06:58;;;;;;;;;;;;;;;24.40;53.79;101487.06;5052169;28;20015;-41
2021/06/19 11:09:42;;;;;;;;;;;;;;;24.39;53.96;101479.88;5051829;28;19995;-41
2021/06/19 11:12:22;;;;;;;;;;;;;;;24.34;53.81;101465.31;5051859;28;19912;-42
2021/06/19 11:15:04;;;;;;;;;;;;;;;24.43;53.65;101455.19;5051425;28;19967;-41
2021/06/19 11:17:32;;;;;;;;;;;;;;;24.49;53.85;101461.44;5054568;28;20007;-41
2021/06/19 11:19:59;;;;;;;;;;;;;;;24.67;54.12;101463.25;5055691;28;19912;-42
2021/06/19 11:22:24;;;;;;;;;;;;;;;24.94;52.83;101456.81;5056148;28;19908;-41
2021/06/19 11:25:08;;;;;;;;;;;;;;;25.14;51.76;101456.34;5072261;28;19965;-41
2021/06/19 11:27:52;;;;;;;;;;;;;;;25.21;51.98;101461.44;5118272;28;19914;-41
2021/06/19 11:30:32;;;;;;;;;;;;;;;25.27;52.89;101449.09;5118576;28;20301;-41
2021/06/19 11:33:16;;;;;;;;;;;;;;;25.56;51.67;101445.84;5119019;28;19919;-41
2021/06/19 11:35:45;;;;;;;;;;;;;;;25.83;50.68;101444.88;5118658;28;19918;-41
2021/06/19 11:38:10;;;;;;;;;;;;;;;25.75;50.76;101448.41;5118166;28;20370;-41
2021/06/19 11:40:36;;;;;;;;;;;;;;;25.41;50.43;101463.69;5118240;28;19947;-41
2021/06/19 11:43:02;;;;;;;;;;;;;;;25.25;51.62;101451.38;5118260;28;19911;-41
2021/06/19 11:45:27;;;;;;;;;;;;;;;25.04;52.06;101456.56;5118055;28;20002;-41
2021/06/19 11:48:01;;;;;;;;;;;;;;;24.86;52.90;101463.91;5117916;28;19915;-41
2021/06/19 11:50:30;;;;;;;;;;;;;;;24.89;52.68;101449.47;5118542;28;19915;-41
2021/06/19 11:52:55;;;;;;;;;;;;;;;24.97;52.10;101449.84;5118398;28;20351;-41
2021/06/19 11:55:21;;;;;;;;;;;;;;;25.01;52.42;101453.59;5117896;28;19911;-41
2021/06/19 11:57:56;;;;;;;;;;;;;;;24.93;52.09;101458.75;5117086;28;19914;-41
2021/06/19 12:00:21;;;;;;;;;;;;;;;24.85;52.31;101459.50;5117518;28;19914;-41
2021/06/19 12:02:50;;;;;;;;;;;;;;;24.75;52.53;101459.75;5117605;28;19911;-41
2021/06/19 12:05:16;;;;;;;;;;;;;;;24.66;52.70;101451.38;5117571;28;19907;-41
2021/06/19 12:07:43;;;;;;;;;;;;;;;24.72;53.05;101448.47;5117569;28;19961;-41
2021/06/19 12:10:28;;;;;;;;;;;;;;;24.86;52.94;101452.84;5117304;28;19960;-41
2021/06/19 12:12:54;;;;;;;;;;;;;;;25.10;52.03;101471.94;5117041;28;19957;-41
2021/06/19 12:15:23;;;;;;;;;;;;;;;25.26;51.89;101464.06;5118009;28;19908;-41
2021/06/19 12:17:48;;;;;;;;;;;;;;;25.45;52.18;101468.59;5117377;28;19908;-41
2021/06/19 12:20:23;;;;;;;;;;;;;;;25.62;51.94;101464.00;5117418;28;19968;-41
2021/06/19 12:22:49;;;;;;;;;;;;;;;25.73;50.63;101467.28;5117315;28;19908;-41
2021/06/19 12:25:25;;;;;;;;;;;;;;;25.90;51.27;101466.56;5117149;28;19908;-41
2021/06/19 12:27:51;;;;;;;;;;;;;;;26.07;51.19;101465.84;5117103;28;19939;-41
2021/06/19 12:30:16;;;;;;;;;;;;;;;26.25;50.33;101461.97;5117144;28;19943;-41
2021/06/19 12:32:43;;;;;;;;;;;;;;;26.35;50.84;101467.22;5117095;28;19931;-41
2021/06/19 12:35:10;;;;;;;;;;;;;;;26.29;49.45;101476.00;5116864;28;19911;-41